Time,TemperatureF,DewpointF,PressureIn,WindDirection,WindDirectionDegrees,WindSpeedMPH,WindSpeedGustMPH,Humidity,HourlyPrecipIn,Conditions,Clouds,dailyrainin,SoftwareType,DateUTC
2013-01-23 00:03:00,69.3,49.8,30.24,ENE,68,10.7,10.7,50,0.00,CLR,,0.00,WeatherDisplay:10.37,2013-01-23 05:03:00,
2013-01-23 00:04:00,69.3,49.8,30.24,ENE,68,10.4,10.4,50,0.00,CLR,,0.00,WeatherDisplay:10.37,2013-01-23 05:04:00,
2013-01-23 00:05:00,69.3,49.8,30.24,SSE,158,10.4,10.4,50,0.00,CLR,,0.00,WeatherDisplay:10.37,2013-01-23 05:05:00,
2013-01-23 00:10:00,69.3,49.8,30.24,ESE,112,9.2,9.2,50,0.00,CLR,,0.00,WeatherDisplay:10.37,2013-01-23 05:10:00,
2013-01-23 00:15:00,69.3,49.3,30.24,NNE,22,11.5,11.5,49,0.00,CLR,,0.00,WeatherDisplay:10.37,2013-01-23 05:15:00,
2013-01-23 00:20:00,69.3,49.8,30.24,North,0,9.2,9.2,50,0.00,CLR,,0.00,WeatherDisplay:10.37,2013-01-23 05:20:00,
2013-01-23 00:25:00,69.3,49.3,30.24,South,180,8.1,8.1,49,0.00,CLR,,0.00,WeatherDisplay:10.37,2013-01-23 05:25:00,
2013-01-23 00:30:00,69.3,49.3,30.24,NNE,22,10.4,10.4,49,0.00,CLR,,0.00,WeatherDisplay:10.37,2013-01-23 05:30:00,
2013-01-23 00:35:00,69.1,49.1,30.21,East,90,12.8,12.8,49,0.00,CLR,,0.00,WeatherDisplay:10.37,2013-01-23 05:35:00,
2013-01-23 00:40:00,69.3,49.8,30.21,NNE,22,8.1,8.1,50,0.00,CLR,,0.00,WeatherDisplay:10.37,2013-01-23 05:40:00,
2013-01-23 00:45:00,69.1,49.7,30.21,East,90,12.7,12.7,50,0.00,CLR,,0.00,WeatherDisplay:10.37,2013-01-23 05:45:00,
2013-01-23 00:51:00,69.1,49.7,30.21,North,0,11.5,11.5,50,0.00,CLR,,0.00,WeatherDisplay:10.37,2013-01-23 05:51:00,
2013-01-23 00:56:00,69.1,49.7,30.21,NNE,22,12.7,12.7,50,0.00,CLR,,0.00,WeatherDisplay:10.37,2013-01-23 05:56:00,
2013-01-23 01:01:00,69.1,50.2,30.24,ESE,112,8.1,8.1,51,0.00,CLR,,0.00,WeatherDisplay:10.37,2013-01-23 06:01:00,
2013-01-23 01:06:00,69.1,50.2,30.24,NNE,22,8.1,8.1,51,0.00,CLR,,0.00,WeatherDisplay:10.37,2013-01-23 06:06:00,
2013-01-23 01:11:00,69.1,50.2,30.24,North,0,10.7,10.7,51,0.00,CLR,,0.00,WeatherDisplay:10.37,2013-01-23 06:11:00,
2013-01-23 01:17:00,69.1,50.2,30.24,NE,45,8.1,8.1,51,0.00,CLR,,0.00,WeatherDisplay:10.37,2013-01-23 06:17:00,
2013-01-23 01:22:00,69.1,50.7,30.24,NNE,22,8.1,8.1,52,0.00,CLR,,0.00,WeatherDisplay:10.37,2013-01-23 06:22:00,
2013-01-23 01:27:00,69.1,50.7,30.24,SW,225,9.7,9.7,52,0.00,CLR,,0.00,WeatherDisplay:10.37,2013-01-23 06:27:00,
2013-01-23 01:32:00,69.1,50.2,30.24,North,0,6.9,6.9,51,0.00,CLR,,0.00,WeatherDisplay:10.37,2013-01-23 06:32:00,
2013-01-23 01:37:00,69.1,50.7,30.24,ESE,112,9.2,9.2,52,0.00,CLR,,0.00,WeatherDisplay:10.37,2013-01-23 06:37:00,
2013-01-23 01:42:00,69.1,49.7,30.24,North,0,11.5,11.5,50,0.00,CLR,,0.00,WeatherDisplay:10.37,2013-01-23 06:42:00,
2013-01-23 01:47:00,69.1,50.2,30.18,NE,45,6.9,6.9,51,0.00,CLR,,0.00,WeatherDisplay:10.37,2013-01-23 06:47:00,
2013-01-23 01:52:00,69.1,50.2,30.18,NNE,22,8.1,8.1,51,0.00,CLR,,0.00,WeatherDisplay:10.37,2013-01-23 06:52:00,
2013-01-23 01:57:00,69.1,50.2,30.18,NE,45,8.1,8.1,51,0.00,CLR,,0.00,WeatherDisplay:10.37,2013-01-23 06:57:00,
2013-01-23 02:02:00,69.1,49.7,30.24,NE,45,10.4,10.4,50,0.00,CLR,,0.00,WeatherDisplay:10.37,2013-01-23 07:02:00,
2013-01-23 02:08:00,69.1,49.7,30.24,ESE,112,10.0,10.0,50,0.00,CLR,,0.00,WeatherDisplay:10.37,2013-01-23 07:08:00,
2013-01-23 02:13:00,68.9,48.9,30.24,NE,45,6.9,6.9,49,0.00,CLR,,0.00,WeatherDisplay:10.37,2013-01-23 07:13:00,
2013-01-23 02:18:00,69.1,49.7,30.21,ESE,112,12.7,12.7,50,0.00,CLR,,0.00,WeatherDisplay:10.37,2013-01-23 07:18:00,
2013-01-23 02:23:00,69.1,49.7,30.21,NNE,22,8.1,8.1,50,0.00,CLR,,0.00,WeatherDisplay:10.37,2013-01-23 07:23:00,
2013-01-23 02:28:00,69.1,49.1,30.21,North,0,6.9,6.9,49,0.00,CLR,,0.00,WeatherDisplay:10.37,2013-01-23 07:28:00,
2013-01-23 02:34:00,68.9,48.9,30.21,North,0,9.2,9.2,49,0.00,CLR,,0.00,WeatherDisplay:10.37,2013-01-23 07:34:00,
2013-01-23 02:39:00,68.9,48.9,30.21,NNE,22,9.2,9.2,49,0.00,CLR,,0.00,WeatherDisplay:10.37,2013-01-23 07:39:00,
2013-01-23 02:44:00,68.9,48.9,30.21,North,0,9.2,9.2,49,0.00,CLR,,0.00,WeatherDisplay:10.37,2013-01-23 07:44:00,
2013-01-23 02:49:00,68.9,48.9,30.21,NE,45,8.7,8.7,49,0.00,CLR,,0.00,WeatherDisplay:10.37,2013-01-23 07:49:00,
2013-01-23 02:54:00,68.9,48.9,30.21,North,0,10.4,10.4,49,0.00,CLR,,0.00,WeatherDisplay:10.37,2013-01-23 07:54:00,
2013-01-23 03:00:00,68.9,48.4,30.21,NNE,22,11.5,11.5,48,0.00,CLR,,0.00,WeatherDisplay:10.37,2013-01-23 08:00:00,
2013-01-23 03:05:00,68.9,48.9,30.21,NNE,22,5.8,5.8,49,0.00,CLR,,0.00,WeatherDisplay:10.37,2013-01-23 08:05:00,
2013-01-23 03:10:00,68.9,49.5,30.21,West,270,12.7,12.7,50,0.00,CLR,,0.00,WeatherDisplay:10.37,2013-01-23 08:10:00,
2013-01-23 03:15:00,68.9,49.5,30.21,East,90,6.9,6.9,50,0.00,CLR,,0.00,WeatherDisplay:10.37,2013-01-23 08:15:00,
2013-01-23 03:20:00,68.9,49.5,30.24,ENE,68,11.5,11.5,50,0.00,CLR,,0.00,WeatherDisplay:10.37,2013-01-23 08:20:00,
2013-01-23 03:25:00,68.9,50.0,30.24,East,90,8.1,8.1,51,0.00,CLR,,0.00,WeatherDisplay:10.37,2013-01-23 08:25:00,
2013-01-23 03:30:00,68.9,50.5,30.24,NE,45,10.4,10.4,52,0.00,CLR,,0.00,WeatherDisplay:10.37,2013-01-23 08:30:00,
2013-01-23 03:35:00,68.9,50.0,30.24,ENE,68,8.1,8.1,51,0.00,CLR,,0.00,WeatherDisplay:10.37,2013-01-23 08:35:00,
2013-01-23 03:40:00,68.9,51.1,30.24,East,90,8.1,8.1,53,0.00,CLR,,0.00,WeatherDisplay:10.37,2013-01-23 08:40:00,
2013-01-23 03:45:00,69.0,51.1,30.24,ENE,60,5.0,8.0,53,0.00,CLR,,0.00,WeatherDisplay:10.37,2013-01-23 08:45:00,
2013-01-23 03:51:00,68.9,50.5,30.21,East,90,10.4,10.4,52,0.00,CLR,,0.00,WeatherDisplay:10.37,2013-01-23 08:51:00,
2013-01-23 03:56:00,68.9,50.5,30.21,East,90,10.4,10.4,52,0.00,CLR,,0.00,WeatherDisplay:10.37,2013-01-23 08:56:00,
2013-01-23 04:00:00,68.8,49.9,30.21,NE,37,3.0,12.0,51,0.00,CLR,,0.00,WeatherDisplay:10.37,2013-01-23 09:00:00,
2013-01-23 04:06:00,68.7,49.9,30.21,East,90,9.2,9.2,51,0.00,CLR,,0.00,WeatherDisplay:10.37,2013-01-23 09:06:00,
2013-01-23 04:11:00,68.7,49.3,30.21,SSW,202,10.4,10.4,50,0.00,CLR,,0.00,WeatherDisplay:10.37,2013-01-23 09:11:00,
2013-01-23 04:16:00,68.7,49.9,30.21,East,90,8.1,8.1,51,0.00,CLR,,0.00,WeatherDisplay:10.37,2013-01-23 09:16:00,
2013-01-23 04:21:00,68.7,49.9,30.21,NNW,338,10.7,10.7,51,0.00,CLR,,0.00,WeatherDisplay:10.37,2013-01-23 09:21:00,
2013-01-23 04:26:00,68.7,49.9,30.21,ENE,68,10.0,10.0,51,0.00,CLR,,0.00,WeatherDisplay:10.37,2013-01-23 09:26:00,
2013-01-23 04:31:00,68.7,50.4,30.24,North,0,6.2,6.2,52,0.00,CLR,,0.00,WeatherDisplay:10.37,2013-01-23 09:31:00,
2013-01-23 04:37:00,68.7,49.9,30.24,NE,45,10.4,10.4,51,0.00,CLR,,0.00,WeatherDisplay:10.37,2013-01-23 09:37:00,
2013-01-23 04:42:00,68.7,50.4,30.24,SE,135,8.1,8.1,52,0.00,CLR,,0.00,WeatherDisplay:10.37,2013-01-23 09:42:00,
2013-01-23 04:47:00,68.7,50.9,30.21,East,90,6.9,6.9,53,0.00,CLR,,0.00,WeatherDisplay:10.37,2013-01-23 09:47:00,
2013-01-23 04:52:00,68.7,50.4,30.21,ESE,112,8.1,8.1,52,0.00,CLR,,0.00,WeatherDisplay:10.37,2013-01-23 09:52:00,
2013-01-23 04:57:00,68.7,50.4,30.21,NE,45,6.0,6.0,52,0.00,CLR,,0.00,WeatherDisplay:10.37,2013-01-23 09:57:00,
2013-01-23 05:02:00,68.7,50.4,30.18,North,0,12.7,12.7,52,0.00,CLR,,0.00,WeatherDisplay:10.37,2013-01-23 10:02:00,
2013-01-23 05:07:00,68.7,49.9,30.18,ENE,68,6.9,6.9,51,0.00,CLR,,0.00,WeatherDisplay:10.37,2013-01-23 10:07:00,
2013-01-23 05:12:00,68.7,49.9,30.18,NE,45,7.4,7.4,51,0.00,CLR,,0.00,WeatherDisplay:10.37,2013-01-23 10:12:00,
2013-01-23 05:17:00,68.7,49.9,30.24,North,0,9.2,9.2,51,0.00,CLR,,0.00,WeatherDisplay:10.37,2013-01-23 10:17:00,
2013-01-23 05:22:00,68.7,50.4,30.24,WSW,248,6.9,6.9,52,0.00,CLR,,0.00,WeatherDisplay:10.37,2013-01-23 10:22:00,
2013-01-23 05:28:00,68.7,49.3,30.24,WNW,292,6.4,6.4,50,0.00,CLR,,0.00,WeatherDisplay:10.37,2013-01-23 10:28:00,
2013-01-23 05:33:00,68.7,49.9,30.21,North,0,10.4,10.4,51,0.00,CLR,,0.00,WeatherDisplay:10.37,2013-01-23 10:33:00,
2013-01-23 05:38:00,68.9,49.5,30.21,NE,45,8.1,8.1,50,0.00,CLR,,0.00,WeatherDisplay:10.37,2013-01-23 10:38:00,
2013-01-23 05:43:00,68.9,49.5,30.21,NNW,338,9.8,9.8,50,0.00,CLR,,0.00,WeatherDisplay:10.37,2013-01-23 10:43:00,
2013-01-23 05:48:00,68.9,48.9,30.24,NE,45,10.4,10.4,49,0.00,CLR,,0.00,WeatherDisplay:10.37,2013-01-23 10:48:00,
2013-01-23 05:54:00,68.9,48.9,30.24,North,0,8.5,8.5,49,0.00,CLR,,0.00,WeatherDisplay:10.37,2013-01-23 10:54:00,
2013-01-23 05:59:00,68.9,48.9,30.24,North,0,6.9,6.9,49,0.00,CLR,,0.00,WeatherDisplay:10.37,2013-01-23 10:59:00,
2013-01-23 06:04:00,68.9,48.9,30.24,ENE,68,12.3,12.3,49,0.00,CLR,,0.00,WeatherDisplay:10.37,2013-01-23 11:04:00,
2013-01-23 06:09:00,68.9,49.5,30.24,NNE,22,8.7,8.7,50,0.00,CLR,,0.00,WeatherDisplay:10.37,2013-01-23 11:09:00,
2013-01-23 06:14:00,68.9,49.5,30.24,North,0,7.4,7.4,50,0.00,CLR,,0.00,WeatherDisplay:10.37,2013-01-23 11:14:00,
2013-01-23 06:19:00,68.9,48.9,30.27,NNE,22,8.1,8.1,49,0.00,CLR,,0.00,WeatherDisplay:10.37,2013-01-23 11:19:00,
2013-01-23 06:24:00,68.9,48.9,30.27,NNE,22,6.9,6.9,49,0.00,CLR,,0.00,WeatherDisplay:10.37,2013-01-23 11:24:00,
2013-01-23 06:29:00,68.9,48.9,30.27,North,0,8.1,8.1,49,0.00,CLR,,0.00,WeatherDisplay:10.37,2013-01-23 11:29:00,
2013-01-23 06:34:00,68.9,48.9,30.27,North,0,8.5,8.5,49,0.00,CLR,,0.00,WeatherDisplay:10.37,2013-01-23 11:34:00,
2013-01-23 06:39:00,68.9,48.9,30.27,NE,45,5.8,6.4,49,0.00,CLR,,0.00,WeatherDisplay:10.37,2013-01-23 11:39:00,
2013-01-23 06:44:00,68.9,48.9,30.27,NE,45,12.3,12.3,49,0.00,CLR,,0.00,WeatherDisplay:10.37,2013-01-23 11:44:00,
2013-01-23 06:49:00,68.9,48.9,30.27,ESE,112,8.5,8.5,49,0.00,CLR,,0.00,WeatherDisplay:10.37,2013-01-23 11:49:00,
2013-01-23 06:55:00,68.9,48.4,30.27,NW,315,8.1,8.1,48,0.00,CLR,,0.00,WeatherDisplay:10.37,2013-01-23 11:55:00,
2013-01-23 07:00:00,68.9,48.9,30.27,NE,45,6.0,6.0,49,0.00,CLR,,0.00,WeatherDisplay:10.37,2013-01-23 12:00:00,
2013-01-23 07:05:00,68.9,48.4,30.27,NE,45,10.7,10.7,48,0.00,CLR,,0.00,WeatherDisplay:10.37,2013-01-23 12:05:00,
2013-01-23 07:10:00,68.9,48.4,30.27,North,0,8.1,8.1,48,0.00,CLR,,0.00,WeatherDisplay:10.37,2013-01-23 12:10:00,
2013-01-23 07:15:00,68.9,48.4,30.27,NNE,22,6.0,6.0,48,0.00,CLR,,0.00,WeatherDisplay:10.37,2013-01-23 12:15:00,
2013-01-23 07:20:00,68.9,48.4,30.27,ENE,68,8.1,8.1,48,0.00,CLR,,0.00,WeatherDisplay:10.37,2013-01-23 12:20:00,
2013-01-23 07:25:00,68.9,48.9,30.27,NW,315,4.6,4.6,49,0.00,CLR,,0.00,WeatherDisplay:10.37,2013-01-23 12:25:00,
2013-01-23 07:31:00,68.9,48.9,30.27,NW,315,11.5,11.5,49,0.00,CLR,,0.00,WeatherDisplay:10.37,2013-01-23 12:31:00,
2013-01-23 07:36:00,68.0,49.2,30.27,WNW,292,5.9,5.9,51,0.00,CLR,,0.00,WeatherDisplay:10.37,2013-01-23 12:36:00,
2013-01-23 07:41:00,67.5,49.7,30.27,North,0,5.9,5.9,53,0.00,CLR,,0.00,WeatherDisplay:10.37,2013-01-23 12:41:00,
2013-01-23 07:46:00,67.3,49.6,30.27,North,0,0.0,0.0,53,0.00,CLR,,0.00,WeatherDisplay:10.37,2013-01-23 12:46:00,
2013-01-23 07:52:00,66.7,49.6,30.27,NW,315,5.9,5.9,54,0.00,CLR,,0.00,WeatherDisplay:10.37,2013-01-23 12:52:00,
2013-01-23 07:57:00,66.4,49.7,30.27,NW,315,6.9,6.9,55,0.00,CLR,,0.00,WeatherDisplay:10.37,2013-01-23 12:57:00,
2013-01-23 08:02:00,66.2,50.0,30.30,NW,315,5.9,5.9,56,0.00,CLR,,0.00,WeatherDisplay:10.37,2013-01-23 13:02:00,
2013-01-23 08:08:00,65.7,50.0,30.30,NW,315,5.9,5.9,57,0.00,CLR,,0.00,WeatherDisplay:10.37,2013-01-23 13:08:00,
2013-01-23 08:13:00,65.5,50.3,30.30,NW,315,6.9,6.9,58,0.00,CLR,,0.00,WeatherDisplay:10.37,2013-01-23 13:13:00,
2013-01-23 08:18:00,65.7,50.9,30.30,NW,315,4.6,4.6,59,0.00,CLR,,0.00,WeatherDisplay:10.37,2013-01-23 13:18:00,
2013-01-23 08:23:00,65.8,51.1,30.30,NW,315,4.7,4.7,59,0.00,CLR,,0.00,WeatherDisplay:10.37,2013-01-23 13:23:00,
2013-01-23 08:28:00,65.5,50.8,30.30,NW,315,4.7,4.7,59,0.00,CLR,,0.00,WeatherDisplay:10.37,2013-01-23 13:28:00,
2013-01-23 08:33:00,65.3,51.1,30.30,West,270,5.8,5.8,60,0.00,CLR,,0.00,WeatherDisplay:10.37,2013-01-23 13:33:00,
2013-01-23 08:38:00,65.1,50.9,30.30,NNW,338,5.8,5.8,60,0.00,CLR,,0.00,WeatherDisplay:10.37,2013-01-23 13:38:00,
2013-01-23 08:44:00,65.1,51.3,30.30,North,0,5.8,5.8,61,0.00,CLR,,0.00,WeatherDisplay:10.37,2013-01-23 13:44:00,
2013-01-23 08:49:00,65.3,51.5,30.30,North,0,6.9,6.9,61,0.00,CLR,,0.00,WeatherDisplay:10.37,2013-01-23 13:49:00,
2013-01-23 08:54:00,65.5,51.7,30.30,North,0,6.0,6.0,61,0.00,CLR,,0.00,WeatherDisplay:10.37,2013-01-23 13:54:00,
2013-01-23 08:59:00,65.5,52.1,30.30,WNW,292,8.1,8.1,62,0.00,CLR,,0.00,WeatherDisplay:10.37,2013-01-23 13:59:00,
2013-01-23 09:04:00,65.7,52.3,30.30,West,270,6.9,6.9,62,0.00,CLR,,0.00,WeatherDisplay:10.37,2013-01-23 14:04:00,
2013-01-23 09:09:00,65.8,52.5,30.30,North,0,5.8,5.8,62,0.00,CLR,,0.00,WeatherDisplay:10.37,2013-01-23 14:09:00,
2013-01-23 09:15:00,66.2,52.3,30.30,NNW,338,5.6,5.6,61,0.00,CLR,,0.00,WeatherDisplay:10.37,2013-01-23 14:15:00,
2013-01-23 09:20:00,66.2,52.3,30.30,North,0,5.8,5.8,61,0.00,CLR,,0.00,WeatherDisplay:10.37,2013-01-23 14:20:00,
2013-01-23 09:25:00,66.4,52.5,30.30,North,357,5.0,7.0,61,0.00,CLR,,0.00,WeatherDisplay:10.37,2013-01-23 14:25:00,
2013-01-23 09:30:00,66.6,53.1,30.30,NW,315,8.1,8.1,62,0.00,CLR,,0.00,WeatherDisplay:10.37,2013-01-23 14:30:00,
2013-01-23 09:35:00,66.6,53.1,30.30,North,0,5.9,5.9,62,0.00,CLR,,0.00,WeatherDisplay:10.37,2013-01-23 14:35:00,
2013-01-23 09:40:00,66.9,53.0,30.30,NNW,338,4.6,0.0,61,0.00,CLR,,0.00,WeatherDisplay:10.37,2013-01-23 14:40:00,
2013-01-23 09:45:00,66.9,53.5,30.33,NW,315,8.1,8.1,62,0.00,CLR,,0.00,WeatherDisplay:10.37,2013-01-23 14:45:00,
2013-01-23 09:51:00,66.9,53.5,30.33,NNW,338,6.9,6.9,62,0.00,CLR,,0.00,WeatherDisplay:10.37,2013-01-23 14:51:00,
2013-01-23 09:56:00,67.1,53.6,30.33,NW,315,5.8,5.8,62,0.00,CLR,,0.00,WeatherDisplay:10.37,2013-01-23 14:56:00,
2013-01-23 10:01:00,67.1,53.6,30.33,NW,315,6.9,6.9,62,0.00,CLR,,0.00,WeatherDisplay:10.37,2013-01-23 15:01:00,
2013-01-23 10:06:00,66.9,53.5,30.33,WNW,292,9.2,9.2,62,0.00,CLR,,0.00,WeatherDisplay:10.37,2013-01-23 15:06:00,
2013-01-23 10:11:00,67.1,53.6,30.33,NNW,338,6.0,6.0,62,0.00,CLR,,0.00,WeatherDisplay:10.37,2013-01-23 15:11:00,
2013-01-23 10:16:00,67.1,53.6,30.33,North,0,5.8,5.8,62,0.00,CLR,,0.00,WeatherDisplay:10.37,2013-01-23 15:16:00,
2013-01-23 10:21:00,67.3,53.8,30.33,North,0,5.8,5.8,62,0.00,CLR,,0.00,WeatherDisplay:10.37,2013-01-23 15:21:00,
2013-01-23 10:26:00,67.5,54.0,30.33,NNW,338,6.9,6.9,62,0.00,CLR,,0.00,WeatherDisplay:10.37,2013-01-23 15:26:00,
2013-01-23 10:31:00,67.5,54.0,30.33,NW,315,6.9,6.9,62,0.00,CLR,,0.00,WeatherDisplay:10.37,2013-01-23 15:31:00,
2013-01-23 10:36:00,67.6,54.2,30.33,NW,315,5.8,5.8,62,0.00,CLR,,0.00,WeatherDisplay:10.37,2013-01-23 15:36:00,
2013-01-23 10:42:00,67.8,54.3,30.33,NW,315,5.8,5.8,62,0.00,CLR,,0.00,WeatherDisplay:10.37,2013-01-23 15:42:00,
2013-01-23 10:47:00,68.0,54.0,30.33,NNW,338,5.8,5.8,61,0.00,CLR,,0.00,WeatherDisplay:10.37,2013-01-23 15:47:00,
2013-01-23 10:52:00,68.4,54.4,30.33,North,0,6.9,6.9,61,0.00,CLR,,0.00,WeatherDisplay:10.37,2013-01-23 15:52:00,
2013-01-23 10:57:00,68.7,54.3,30.33,North,0,4.6,4.6,60,0.00,CLR,,0.00,WeatherDisplay:10.37,2013-01-23 15:57:00,
2013-01-23 11:02:00,69.1,54.6,30.33,North,0,5.9,5.9,60,0.00,CLR,,0.00,WeatherDisplay:10.37,2013-01-23 16:02:00,
2013-01-23 11:07:00,69.4,54.9,30.33,NW,315,4.6,4.6,60,0.00,CLR,,0.00,WeatherDisplay:10.37,2013-01-23 16:07:00,
2013-01-23 11:12:00,69.6,55.1,30.33,NNE,22,4.6,4.6,60,0.00,CLR,,0.00,WeatherDisplay:10.37,2013-01-23 16:12:00,
2013-01-23 11:18:00,69.8,54.4,30.33,North,0,8.1,8.1,58,0.00,CLR,,0.00,WeatherDisplay:10.37,2013-01-23 16:18:00,
2013-01-23 11:23:00,70.0,54.5,30.33,North,0,4.6,4.6,58,0.00,CLR,,0.00,WeatherDisplay:10.37,2013-01-23 16:23:00,
2013-01-23 11:28:00,70.0,54.0,30.33,ENE,68,5.8,5.8,57,0.00,CLR,,0.00,WeatherDisplay:10.37,2013-01-23 16:28:00,
2013-01-23 11:33:00,70.2,54.2,30.33,NE,45,5.8,5.8,57,0.00,CLR,,0.00,WeatherDisplay:10.37,2013-01-23 16:33:00,
2013-01-23 11:38:00,70.5,54.5,30.33,ENE,68,7.4,7.4,57,0.00,CLR,,0.00,WeatherDisplay:10.37,2013-01-23 16:38:00,
2013-01-23 11:43:00,71.1,52.5,30.33,NE,45,8.1,8.1,52,0.00,CLR,,0.00,WeatherDisplay:10.37,2013-01-23 16:43:00,
2013-01-23 11:49:00,71.4,52.9,30.33,East,90,8.1,8.1,52,0.00,CLR,,0.00,WeatherDisplay:10.37,2013-01-23 16:49:00,
2013-01-23 11:54:00,72.0,52.8,30.33,North,0,10.4,10.4,51,0.00,CLR,,0.00,WeatherDisplay:10.37,2013-01-23 16:54:00,
2013-01-23 11:59:00,72.0,52.3,30.33,East,90,6.9,6.9,50,0.00,CLR,,0.00,WeatherDisplay:10.37,2013-01-23 16:59:00,
2013-01-23 12:04:00,72.1,53.0,30.33,NE,45,9.7,9.7,51,0.00,CLR,,0.00,WeatherDisplay:10.37,2013-01-23 17:04:00,
2013-01-23 12:09:00,72.3,52.6,30.33,East,90,9.2,9.2,50,0.00,CLR,,0.00,WeatherDisplay:10.37,2013-01-23 17:09:00,
2013-01-23 12:15:00,72.3,51.5,30.33,SSE,158,8.1,8.1,48,0.00,CLR,,0.00,WeatherDisplay:10.37,2013-01-23 17:15:00,
2013-01-23 12:20:00,72.5,52.2,30.30,NNE,22,8.1,8.1,49,0.00,CLR,,0.00,WeatherDisplay:10.37,2013-01-23 17:20:00,
2013-01-23 12:25:00,72.7,51.3,30.30,North,0,6.9,6.9,47,0.00,CLR,,0.00,WeatherDisplay:10.37,2013-01-23 17:25:00,
2013-01-23 12:30:00,72.7,51.9,30.30,East,90,6.9,6.9,48,0.00,CLR,,0.00,WeatherDisplay:10.37,2013-01-23 17:30:00,
2013-01-23 12:35:00,72.9,50.9,30.30,NE,55,6.0,9.0,46,0.00,CLR,,0.00,WeatherDisplay:10.37,2013-01-23 17:35:00,
2013-01-23 12:40:00,72.7,51.3,30.30,NE,53,6.0,9.0,47,0.00,CLR,,0.00,WeatherDisplay:10.37,2013-01-23 17:40:00,
2013-01-23 12:45:00,72.9,51.4,30.30,ESE,112,8.1,8.1,47,0.00,CLR,,0.00,WeatherDisplay:10.37,2013-01-23 17:45:00,
2013-01-23 12:50:00,73.0,51.6,30.27,ENE,68,8.1,8.1,47,0.00,CLR,,0.00,WeatherDisplay:10.37,2013-01-23 17:50:00,
2013-01-23 12:56:00,73.0,51.6,30.27,NE,45,7.1,7.1,47,0.00,CLR,,0.00,WeatherDisplay:10.37,2013-01-23 17:56:00,
2013-01-23 13:01:00,72.9,51.4,30.27,East,90,6.9,6.9,47,0.00,CLR,,0.00,WeatherDisplay:10.37,2013-01-23 18:01:00,
2013-01-23 13:06:00,73.0,51.0,30.27,ESE,112,3.8,4.9,46,0.00,CLR,,0.00,WeatherDisplay:10.37,2013-01-23 18:06:00,
2013-01-23 13:11:00,72.9,50.9,30.27,NE,45,10.4,10.4,46,0.00,CLR,,0.00,WeatherDisplay:10.37,2013-01-23 18:11:00,
2013-01-23 13:16:00,73.2,51.2,30.27,SE,135,8.5,8.5,46,0.00,CLR,,0.00,WeatherDisplay:10.37,2013-01-23 18:16:00,
2013-01-23 13:22:00,73.2,50.6,30.27,NE,45,9.7,9.7,45,0.00,CLR,,0.00,WeatherDisplay:10.37,2013-01-23 18:22:00,
2013-01-23 13:27:00,73.2,50.6,30.27,NNE,22,6.9,6.9,45,0.00,CLR,,0.00,WeatherDisplay:10.37,2013-01-23 18:27:00,
2013-01-23 13:32:00,73.2,50.6,30.27,NE,45,6.9,6.9,45,0.00,CLR,,0.00,WeatherDisplay:10.37,2013-01-23 18:32:00,
2013-01-23 13:37:00,73.0,51.0,30.27,East,90,5.8,5.8,46,0.00,CLR,,0.00,WeatherDisplay:10.37,2013-01-23 18:37:00,
2013-01-23 13:42:00,72.7,50.1,30.27,East,90,8.1,8.1,45,0.00,CLR,,0.00,WeatherDisplay:10.37,2013-01-23 18:42:00,
2013-01-23 13:47:00,72.9,50.9,30.27,East,90,6.9,6.9,46,0.00,CLR,,0.00,WeatherDisplay:10.37,2013-01-23 18:47:00,
2013-01-23 13:52:00,73.0,51.0,30.27,NE,45,8.1,8.1,46,0.00,CLR,,0.00,WeatherDisplay:10.37,2013-01-23 18:52:00,
2013-01-23 13:58:00,73.0,51.0,30.27,North,0,10.4,10.4,46,0.00,CLR,,0.00,WeatherDisplay:10.37,2013-01-23 18:58:00,
2013-01-23 14:03:00,73.2,51.2,30.27,East,90,6.2,6.2,46,0.00,CLR,,0.00,WeatherDisplay:10.37,2013-01-23 19:03:00,
2013-01-23 14:08:00,73.2,51.2,30.27,NE,45,8.1,8.1,46,0.00,CLR,,0.00,WeatherDisplay:10.37,2013-01-23 19:08:00,
2013-01-23 14:13:00,73.6,52.1,30.27,ENE,68,8.1,8.1,47,0.00,CLR,,0.00,WeatherDisplay:10.37,2013-01-23 19:13:00,
2013-01-23 14:18:00,73.4,51.4,30.27,NE,45,6.9,6.9,46,0.00,CLR,,0.00,WeatherDisplay:10.37,2013-01-23 19:18:00,
2013-01-23 14:24:00,73.8,52.3,30.27,NE,45,9.2,9.2,47,0.00,CLR,,0.00,WeatherDisplay:10.37,2013-01-23 19:24:00,
2013-01-23 14:29:00,73.6,52.1,30.27,ENE,68,6.2,6.2,47,0.00,CLR,,0.00,WeatherDisplay:10.37,2013-01-23 19:29:00,
2013-01-23 14:34:00,73.4,51.4,30.27,ENE,68,6.9,6.9,46,0.00,CLR,,0.00,WeatherDisplay:10.37,2013-01-23 19:34:00,
2013-01-23 14:39:00,73.8,52.3,30.27,East,90,6.9,6.9,47,0.00,CLR,,0.00,WeatherDisplay:10.37,2013-01-23 19:39:00,
2013-01-23 14:44:00,73.8,52.8,30.27,NE,45,8.5,8.5,48,0.00,CLR,,0.00,WeatherDisplay:10.37,2013-01-23 19:44:00,
2013-01-23 14:49:00,73.6,52.1,30.27,South,180,8.1,8.1,47,0.00,CLR,,0.00,WeatherDisplay:10.37,2013-01-23 19:49:00,
2013-01-23 14:55:00,73.6,51.5,30.27,ENE,68,8.1,8.1,46,0.00,CLR,,0.00,WeatherDisplay:10.37,2013-01-23 19:55:00,
2013-01-23 15:00:00,73.4,51.4,30.27,East,90,6.9,6.9,46,0.00,CLR,,0.00,WeatherDisplay:10.37,2013-01-23 20:00:00,
2013-01-23 15:05:00,73.8,52.3,30.27,East,90,6.9,6.9,47,0.00,CLR,,0.00,WeatherDisplay:10.37,2013-01-23 20:05:00,
2013-01-23 15:10:00,73.8,51.7,30.27,SE,135,7.1,7.1,46,0.00,CLR,,0.00,WeatherDisplay:10.37,2013-01-23 20:10:00,
2013-01-23 15:15:00,73.2,51.8,30.27,ENE,67,6.0,8.0,47,0.00,CLR,,0.00,WeatherDisplay:10.37,2013-01-23 20:15:00,
2013-01-23 15:21:00,73.8,51.7,30.27,ENE,68,8.1,8.1,46,0.00,CLR,,0.00,WeatherDisplay:10.37,2013-01-23 20:21:00,
2013-01-23 15:26:00,73.9,51.8,30.27,NNE,22,5.8,5.8,46,0.00,CLR,,0.00,WeatherDisplay:10.37,2013-01-23 20:26:00,
2013-01-23 15:31:00,73.8,51.7,30.27,East,90,6.9,6.9,46,0.00,CLR,,0.00,WeatherDisplay:10.37,2013-01-23 20:31:00,
2013-01-23 15:36:00,73.4,51.4,30.27,East,90,5.8,5.8,46,0.00,CLR,,0.00,WeatherDisplay:10.37,2013-01-23 20:36:00,
2013-01-23 15:42:00,73.8,51.7,30.27,NE,45,9.2,9.2,46,0.00,CLR,,0.00,WeatherDisplay:10.37,2013-01-23 20:42:00,
2013-01-23 15:47:00,73.6,50.9,30.27,NE,45,5.9,5.9,45,0.00,CLR,,0.00,WeatherDisplay:10.37,2013-01-23 20:47:00,
2013-01-23 15:52:00,73.9,51.8,30.27,NE,45,7.6,7.6,46,0.00,CLR,,0.00,WeatherDisplay:10.37,2013-01-23 20:52:00,
2013-01-23 15:57:00,73.8,51.7,30.27,WNW,292,9.2,9.2,46,0.00,CLR,,0.00,WeatherDisplay:10.37,2013-01-23 20:57:00,
2013-01-23 16:02:00,73.8,51.7,30.24,ENE,68,6.9,6.9,46,0.00,CLR,,0.00,WeatherDisplay:10.37,2013-01-23 21:02:00,
2013-01-23 16:07:00,73.9,51.8,30.24,ENE,68,4.7,4.7,46,0.00,CLR,,0.00,WeatherDisplay:10.37,2013-01-23 21:07:00,
2013-01-23 16:13:00,73.9,51.8,30.24,NNE,22,8.1,8.1,46,0.00,CLR,,0.00,WeatherDisplay:10.37,2013-01-23 21:13:00,
2013-01-23 16:18:00,73.6,51.5,30.27,NE,45,10.4,10.4,46,0.00,CLR,,0.00,WeatherDisplay:10.37,2013-01-23 21:18:00,
2013-01-23 16:23:00,73.8,51.7,30.27,ENE,68,9.4,9.4,46,0.00,CLR,,0.00,WeatherDisplay:10.37,2013-01-23 21:23:00,
2013-01-23 16:28:00,73.6,51.5,30.27,NE,45,6.9,6.9,46,0.00,CLR,,0.00,WeatherDisplay:10.37,2013-01-23 21:28:00,
2013-01-23 16:33:00,73.6,50.9,30.27,NNE,22,8.1,8.1,45,0.00,CLR,,0.00,WeatherDisplay:10.37,2013-01-23 21:33:00,
2013-01-23 16:39:00,73.6,50.9,30.27,ENE,68,6.9,6.9,45,0.00,CLR,,0.00,WeatherDisplay:10.37,2013-01-23 21:39:00,
2013-01-23 16:44:00,73.9,51.3,30.27,East,90,6.4,6.4,45,0.00,CLR,,0.00,WeatherDisplay:10.37,2013-01-23 21:44:00,
2013-01-23 16:49:00,73.4,50.8,30.27,ENE,68,8.1,8.1,45,0.00,CLR,,0.00,WeatherDisplay:10.37,2013-01-23 21:49:00,
2013-01-23 16:54:00,73.8,51.1,30.27,East,90,10.4,10.4,45,0.00,CLR,,0.00,WeatherDisplay:10.37,2013-01-23 21:54:00,
2013-01-23 16:59:00,73.2,50.6,30.27,NE,45,10.9,10.9,45,0.00,CLR,,0.00,WeatherDisplay:10.37,2013-01-23 21:59:00,
2013-01-23 17:04:00,73.6,50.9,30.24,ESE,112,6.9,6.9,45,0.00,CLR,,0.00,WeatherDisplay:10.37,2013-01-23 22:04:00,
2013-01-23 17:09:00,72.9,50.3,30.24,North,0,6.9,6.9,45,0.00,CLR,,0.00,WeatherDisplay:10.37,2013-01-23 22:09:00,
2013-01-23 17:15:00,72.9,50.3,30.24,NE,45,8.1,8.1,45,0.00,CLR,,0.00,WeatherDisplay:10.37,2013-01-23 22:15:00,
2013-01-23 17:20:00,73.0,50.4,30.24,NNE,22,5.8,5.8,45,0.00,CLR,,0.00,WeatherDisplay:10.37,2013-01-23 22:20:00,
2013-01-23 17:25:00,72.9,50.9,30.27,ENE,68,7.1,7.1,46,0.00,CLR,,0.00,WeatherDisplay:10.37,2013-01-23 22:25:00,
2013-01-23 17:30:00,72.7,50.7,30.27,NE,45,5.8,5.8,46,0.00,CLR,,0.00,WeatherDisplay:10.37,2013-01-23 22:30:00,
2013-01-23 17:35:00,72.3,50.4,30.27,East,90,6.9,6.9,46,0.00,CLR,,0.00,WeatherDisplay:10.37,2013-01-23 22:35:00,
2013-01-23 17:40:00,72.1,50.2,30.27,ENE,58,6.0,9.0,46,0.00,CLR,,0.00,WeatherDisplay:10.37,2013-01-23 22:40:00,
2013-01-23 17:45:00,71.8,49.9,30.27,SSE,158,6.9,6.9,46,0.00,CLR,,0.00,WeatherDisplay:10.37,2013-01-23 22:45:00,
2013-01-23 17:50:00,71.6,50.3,30.27,ENE,64,7.0,10.0,47,0.00,CLR,,0.00,WeatherDisplay:10.37,2013-01-23 22:50:00,
2013-01-23 17:55:00,71.6,50.3,30.27,NNE,22,8.1,8.1,47,0.00,CLR,,0.00,WeatherDisplay:10.37,2013-01-23 22:55:00,
2013-01-23 18:00:00,71.6,49.7,30.27,NNE,22,7.1,7.1,46,0.00,CLR,,0.00,WeatherDisplay:10.37,2013-01-23 23:00:00,
2013-01-23 18:06:00,71.4,50.1,30.27,East,90,7.8,7.8,47,0.00,CLR,,0.00,WeatherDisplay:10.37,2013-01-23 23:06:00,
2013-01-23 18:11:00,71.1,50.4,30.27,ENE,68,5.8,5.8,48,0.00,CLR,,0.00,WeatherDisplay:10.37,2013-01-23 23:11:00,
2013-01-23 18:16:00,70.9,50.2,30.27,East,90,8.1,8.1,48,0.00,CLR,,0.00,WeatherDisplay:10.37,2013-01-23 23:16:00,
2013-01-23 18:21:00,70.9,50.2,30.27,ENE,68,6.4,6.4,48,0.00,CLR,,0.00,WeatherDisplay:10.37,2013-01-23 23:21:00,
2013-01-23 18:26:00,70.9,50.2,30.27,NE,45,4.6,4.6,48,0.00,CLR,,0.00,WeatherDisplay:10.37,2013-01-23 23:26:00,
2013-01-23 18:32:00,70.9,50.2,30.27,NNE,22,6.0,6.0,48,0.00,CLR,,0.00,WeatherDisplay:10.37,2013-01-23 23:32:00,
2013-01-23 18:37:00,70.9,50.8,30.27,ENE,68,8.1,8.1,49,0.00,CLR,,0.00,WeatherDisplay:10.37,2013-01-23 23:37:00,
2013-01-23 18:42:00,70.9,50.8,30.27,NE,45,8.5,8.5,49,0.00,CLR,,0.00,WeatherDisplay:10.37,2013-01-23 23:42:00,
2013-01-23 18:47:00,70.5,49.9,30.27,ESE,112,8.1,8.1,48,0.00,CLR,,0.00,WeatherDisplay:10.37,2013-01-23 23:47:00,
2013-01-23 18:52:00,70.5,49.9,30.27,East,90,10.5,10.5,48,0.00,CLR,,0.00,WeatherDisplay:10.37,2013-01-23 23:52:00,
2013-01-23 18:57:00,70.5,49.9,30.27,East,90,10.4,10.4,48,0.00,CLR,,0.00,WeatherDisplay:10.37,2013-01-23 23:57:00,
2013-01-23 19:02:00,70.5,49.9,30.27,North,0,8.1,8.1,48,0.00,CLR,,0.00,WeatherDisplay:10.37,2013-01-24 00:02:00,
2013-01-23 19:07:00,70.5,50.4,30.27,East,90,5.6,5.6,49,0.00,CLR,,0.00,WeatherDisplay:10.37,2013-01-24 00:07:00,
2013-01-23 19:13:00,70.3,49.7,30.27,North,0,4.6,4.6,48,0.00,CLR,,0.00,WeatherDisplay:10.37,2013-01-24 00:13:00,
2013-01-23 19:18:00,70.3,49.7,30.27,East,90,6.0,6.0,48,0.00,CLR,,0.00,WeatherDisplay:10.37,2013-01-24 00:18:00,
2013-01-23 19:23:00,70.3,49.7,30.27,ESE,112,4.6,4.6,48,0.00,CLR,,0.00,WeatherDisplay:10.37,2013-01-24 00:23:00,
2013-01-23 19:28:00,70.3,49.7,30.27,ENE,68,9.8,9.8,48,0.00,CLR,,0.00,WeatherDisplay:10.37,2013-01-24 00:28:00,
2013-01-23 19:33:00,70.3,49.7,30.27,NNE,22,5.8,5.8,48,0.00,CLR,,0.00,WeatherDisplay:10.37,2013-01-24 00:33:00,
2013-01-23 19:38:00,70.3,49.7,30.27,East,90,5.8,5.8,48,0.00,CLR,,0.00,WeatherDisplay:10.37,2013-01-24 00:38:00,
2013-01-23 19:44:00,70.3,50.3,30.27,NE,45,6.9,6.9,49,0.00,CLR,,0.00,WeatherDisplay:10.37,2013-01-24 00:44:00,
2013-01-23 19:49:00,70.3,50.3,30.27,North,0,3.5,3.6,49,0.00,CLR,,0.00,WeatherDisplay:10.37,2013-01-24 00:49:00,
2013-01-23 19:54:00,70.0,50.5,30.27,NW,315,8.1,8.1,50,0.00,CLR,,0.00,WeatherDisplay:10.37,2013-01-24 00:54:00,
2013-01-23 19:59:00,69.6,51.7,30.30,NNE,22,6.0,6.0,53,0.00,CLR,,0.00,WeatherDisplay:10.37,2013-01-24 00:59:00,
2013-01-23 20:04:00,69.3,52.4,30.30,NW,315,8.1,8.1,55,0.00,CLR,,0.00,WeatherDisplay:10.37,2013-01-24 01:04:00,
2013-01-23 20:09:00,68.7,52.4,30.30,NNW,338,7.8,7.8,56,0.00,CLR,,0.00,WeatherDisplay:10.37,2013-01-24 01:09:00,
2013-01-23 20:14:00,68.4,52.5,30.30,NNW,338,6.9,6.9,57,0.00,CLR,,0.00,WeatherDisplay:10.37,2013-01-24 01:14:00,
2013-01-23 20:19:00,68.2,52.8,30.30,North,0,6.9,6.9,58,0.00,CLR,,0.00,WeatherDisplay:10.37,2013-01-24 01:19:00,
2013-01-23 20:24:00,67.8,53.0,30.30,NW,315,8.1,8.1,59,0.00,CLR,,0.00,WeatherDisplay:10.37,2013-01-24 01:24:00,
2013-01-23 20:30:00,67.8,53.0,30.30,WNW,292,3.5,3.5,59,0.00,CLR,,0.00,WeatherDisplay:10.37,2013-01-24 01:30:00,
2013-01-23 20:35:00,67.6,53.3,30.30,North,0,6.0,6.0,60,0.00,CLR,,0.00,WeatherDisplay:10.37,2013-01-24 01:35:00,
2013-01-23 20:40:00,67.5,53.1,30.30,WNW,292,5.8,5.8,60,0.00,CLR,,0.00,WeatherDisplay:10.37,2013-01-24 01:40:00,
2013-01-23 20:45:00,67.3,52.9,30.30,NW,315,5.8,5.8,60,0.00,CLR,,0.00,WeatherDisplay:10.37,2013-01-24 01:45:00,
2013-01-23 20:50:00,67.1,53.2,30.30,NW,321,3.0,6.0,61,0.00,CLR,,0.00,WeatherDisplay:10.37,2013-01-24 01:50:00,
2013-01-23 20:55:00,66.9,53.0,30.30,NNW,338,6.0,6.0,61,0.00,CLR,,0.00,WeatherDisplay:10.37,2013-01-24 01:55:00,
2013-01-23 21:00:00,66.7,53.3,30.30,NW,315,5.8,5.8,62,0.00,CLR,,0.00,WeatherDisplay:10.37,2013-01-24 02:00:00,
2013-01-23 21:05:00,66.6,53.1,30.30,NW,315,5.8,5.8,62,0.00,CLR,,0.00,WeatherDisplay:10.37,2013-01-24 02:05:00,
2013-01-23 21:11:00,66.4,53.4,30.30,NW,315,5.8,5.8,63,0.00,CLR,,0.00,WeatherDisplay:10.37,2013-01-24 02:11:00,
2013-01-23 21:16:00,66.2,52.8,30.30,North,0,5.4,5.4,62,0.00,CLR,,0.00,WeatherDisplay:10.37,2013-01-24 02:16:00,
2013-01-23 21:21:00,66.0,53.5,30.30,NW,315,5.9,5.9,64,0.00,CLR,,0.00,WeatherDisplay:10.37,2013-01-24 02:21:00,
2013-01-23 21:26:00,66.0,53.5,30.30,WNW,292,4.7,4.7,64,0.00,CLR,,0.00,WeatherDisplay:10.37,2013-01-24 02:26:00,
2013-01-23 21:31:00,65.8,52.9,30.30,North,0,6.2,6.2,63,0.00,CLR,,0.00,WeatherDisplay:10.37,2013-01-24 02:31:00,
2013-01-23 21:36:00,65.7,53.1,30.30,North,0,5.8,5.8,64,0.00,CLR,,0.00,WeatherDisplay:10.37,2013-01-24 02:36:00,
2013-01-23 21:41:00,65.7,53.1,30.30,NW,315,6.9,6.9,64,0.00,CLR,,0.00,WeatherDisplay:10.37,2013-01-24 02:41:00,
2013-01-23 21:46:00,65.5,53.0,30.33,West,270,6.9,6.9,64,0.00,CLR,,0.00,WeatherDisplay:10.37,2013-01-24 02:46:00,
2013-01-23 21:51:00,65.5,53.0,30.33,NW,315,8.5,8.5,64,0.00,CLR,,0.00,WeatherDisplay:10.37,2013-01-24 02:51:00,
2013-01-23 21:57:00,65.3,52.8,30.33,NW,315,5.8,5.8,64,0.00,CLR,,0.00,WeatherDisplay:10.37,2013-01-24 02:57:00,
2013-01-23 22:02:00,65.3,52.8,30.30,WNW,292,5.8,5.8,64,0.00,CLR,,0.00,WeatherDisplay:10.37,2013-01-24 03:02:00,
2013-01-23 22:07:00,65.3,52.8,30.30,NW,315,5.8,5.8,64,0.00,CLR,,0.00,WeatherDisplay:10.37,2013-01-24 03:07:00,
2013-01-23 22:12:00,65.1,52.6,30.30,NW,315,5.9,5.9,64,0.00,CLR,,0.00,WeatherDisplay:10.37,2013-01-24 03:12:00,
2013-01-23 22:17:00,64.9,52.9,30.30,NW,315,8.1,8.1,65,0.00,CLR,,0.00,WeatherDisplay:10.37,2013-01-24 03:17:00,
2013-01-23 22:23:00,64.8,52.7,30.30,NW,315,5.9,5.9,65,0.00,CLR,,0.00,WeatherDisplay:10.37,2013-01-24 03:23:00,
2013-01-23 22:28:00,64.8,52.7,30.30,NW,315,5.8,5.9,65,0.00,CLR,,0.00,WeatherDisplay:10.37,2013-01-24 03:28:00,
2013-01-23 22:33:00,64.8,52.7,30.30,NW,315,6.9,6.9,65,0.00,CLR,,0.00,WeatherDisplay:10.37,2013-01-24 03:33:00,
2013-01-23 22:38:00,64.6,52.5,30.30,NW,315,5.8,5.8,65,0.00,CLR,,0.00,WeatherDisplay:10.37,2013-01-24 03:38:00,
2013-01-23 22:43:00,64.6,52.5,30.30,NNW,338,6.9,6.9,65,0.00,CLR,,0.00,WeatherDisplay:10.37,2013-01-24 03:43:00,
2013-01-23 22:48:00,64.6,52.5,30.30,NW,315,5.8,5.8,65,0.00,CLR,,0.00,WeatherDisplay:10.37,2013-01-24 03:48:00,
2013-01-23 22:54:00,64.4,52.4,30.30,NW,315,5.6,5.6,65,0.00,CLR,,0.00,WeatherDisplay:10.37,2013-01-24 03:54:00,
2013-01-23 22:59:00,64.4,52.4,30.30,NW,315,6.4,6.4,65,0.00,CLR,,0.00,WeatherDisplay:10.37,2013-01-24 03:59:00,
2013-01-23 23:04:00,64.2,52.6,30.30,NW,315,4.9,4.9,66,0.00,CLR,,0.00,WeatherDisplay:10.37,2013-01-24 04:04:00,
2013-01-23 23:09:00,64.2,52.6,30.30,WNW,292,6.9,6.9,66,0.00,CLR,,0.00,WeatherDisplay:10.37,2013-01-24 04:09:00,
2013-01-23 23:14:00,64.2,52.6,30.30,NW,315,5.8,5.8,66,0.00,CLR,,0.00,WeatherDisplay:10.37,2013-01-24 04:14:00,
2013-01-23 23:19:00,64.0,52.4,30.30,NW,315,5.8,5.8,66,0.00,CLR,,0.00,WeatherDisplay:10.37,2013-01-24 04:19:00,
2013-01-23 23:24:00,64.0,52.4,30.30,NW,315,5.8,5.8,66,0.00,CLR,,0.00,WeatherDisplay:10.37,2013-01-24 04:24:00,
2013-01-23 23:29:00,63.9,52.3,30.30,NW,315,4.6,4.6,66,0.00,CLR,,0.00,WeatherDisplay:10.37,2013-01-24 04:29:00,
2013-01-23 23:34:00,64.0,52.4,30.30,NW,315,4.6,4.6,66,0.00,CLR,,0.00,WeatherDisplay:10.37,2013-01-24 04:34:00,
2013-01-23 23:39:00,63.9,52.7,30.30,NW,315,6.9,6.9,67,0.00,CLR,,0.00,WeatherDisplay:10.37,2013-01-24 04:39:00,
2013-01-23 23:45:00,63.7,52.5,30.30,NW,315,6.4,6.4,67,0.00,CLR,,0.00,WeatherDisplay:10.37,2013-01-24 04:45:00,
2013-01-23 23:50:00,63.7,52.5,30.30,WNW,292,5.8,5.8,67,0.00,CLR,,0.00,WeatherDisplay:10.37,2013-01-24 04:50:00,
2013-01-23 23:55:00,63.5,52.3,30.30,West,270,5.8,5.8,67,0.00,CLR,,0.00,WeatherDisplay:10.37,2013-01-24 04:55:00,